Time;durP1;ratioP1;P1;durP2;ratioP2;P2;SDS_P1;SDS_P2;PMS_P1;PMS_P2;Temp;Humidity;BMP_temperature;BMP_pressure;BME280_temperature;BME280_humidity;BME280_pressure;Samples;Min_cycle;Max_cycle;Signal;HPM_P1;HPM_P2
2023/08/23 00:00:25;;;;;;;12.20;6.40;;;;;;;21.71;63.42;101239.92;107342;1257;107347;-61
2023/08/23 00:03:13;;;;;;;12.20;7.00;;;;;;;21.75;63.69;101236.48;107284;1256;98032;-62
2023/08/23 00:05:43;;;;;;;10.10;6.80;;;;;;;21.74;64.04;101240.45;107324;1256;97887;-61
2023/08/23 00:08:11;;;;;;;19.90;7.90;;;;;;;21.73;63.71;101240.66;107382;1259;111812;-60
2023/08/23 00:10:39;;;;;;;12.50;6.80;;;;;;;21.71;64.08;101247.20;107296;1257;109150;-62
2023/08/23 00:13:07;;;;;;;16.20;7.50;;;;;;;21.70;63.62;101245.02;107299;1258;108392;-61
2023/08/23 00:15:41;;;;;;;13.60;7.30;;;;;;;21.67;63.51;101241.40;107286;1257;97976;-62
2023/08/23 00:18:09;;;;;;;10.60;6.80;;;;;;;21.63;63.58;101240.11;107385;1256;97758;-62
2023/08/23 00:20:37;;;;;;;12.00;6.70;;;;;;;21.59;63.53;101238.93;107290;1257;111734;-61
2023/08/23 00:23:05;;;;;;;20.50;7.20;;;;;;;21.57;63.65;101239.54;107313;1257;109362;-62
2023/08/23 00:25:34;;;;;;;20.40;7.70;;;;;;;21.55;63.52;101230.97;107304;1256;107949;-61
2023/08/23 00:28:02;;;;;;;14.90;7.30;;;;;;;21.56;63.29;101231.90;107341;1257;98539;-61
2023/08/23 00:30:54;;;;;;;18.30;6.20;;;;;;;21.54;64.03;101226.70;107324;1257;97741;-60
2023/08/23 00:33:23;;;;;;;17.00;7.40;;;;;;;21.46;64.18;101227.95;107236;1257;111283;-61
2023/08/23 00:35:52;;;;;;;12.60;7.50;;;;;;;21.41;64.00;101222.08;107084;1256;109727;-62
2023/08/23 00:38:21;;;;;;;12.50;7.60;;;;;;;21.36;64.04;101227.06;107280;1257;107165;-62
2023/08/23 00:40:50;;;;;;;15.50;8.30;;;;;;;21.33;64.28;101226.86;107436;1257;97832;-61
2023/08/23 00:43:18;;;;;;;16.60;7.70;;;;;;;21.32;64.16;101223.02;107310;1256;97843;-61
2023/08/23 00:45:47;;;;;;;12.70;6.90;;;;;;;21.32;64.15;101227.19;107354;1257;111449;-62
2023/08/23 00:48:16;;;;;;;15.40;7.30;;;;;;;21.32;64.18;101229.11;107325;1257;108586;-61
2023/08/23 00:50:45;;;;;;;19.00;8.40;;;;;;;21.30;64.09;101225.06;107351;1259;108222;-62
2023/08/23 00:53:14;;;;;;;17.40;6.90;;;;;;;21.31;64.25;101217.90;107352;1257;97935;-62
2023/08/23 00:55:43;;;;;;;14.40;7.00;;;;;;;21.27;64.10;101217.25;107363;1254;97743;-61
2023/08/23 00:58:12;;;;;;;13.70;6.60;;;;;;;21.23;64.32;101220.63;107375;1257;111850;-61
2023/08/23 01:00:41;;;;;;;24.70;8.20;;;;;;;21.20;64.84;101218.70;107283;1254;108819;-61
2023/08/23 01:03:09;;;;;;;16.10;7.60;;;;;;;21.16;64.86;101218.48;107260;1257;107484;-61
2023/08/23 01:05:52;;;;;;;11.40;6.90;;;;;;;21.14;65.02;101217.80;107269;1254;97839;-62
2023/08/23 01:08:36;;;;;;;;;;;;;;;21.13;64.83;101224.48;107343;1257;97843;-61
2023/08/23 01:11:33;;;;;;;15.80;6.70;;;;;;;21.10;64.44;101228.12;107069;1256;110898;-63
2023/08/23 01:14:04;;;;;;;14.20;7.00;;;;;;;21.07;65.41;101230.40;107397;1254;109813;-63
2023/08/23 01:16:34;;;;;;;14.00;6.70;;;;;;;21.01;66.54;101231.34;107345;1258;107516;-62
2023/08/23 01:19:16;;;;;;;12.60;7.60;;;;;;;20.97;66.44;101232.40;107336;1259;97843;-61
2023/08/23 01:21:49;;;;;;;17.60;7.50;;;;;;;20.95;66.30;101232.89;107249;1257;97913;-63
2023/08/23 01:24:18;;;;;;;12.30;7.50;;;;;;;20.94;66.30;101225.50;107304;1257;111683;-61
2023/08/23 01:26:46;;;;;;;18.00;7.70;;;;;;;20.93;66.66;101226.80;107398;1254;109767;-62
2023/08/23 01:29:14;;;;;;;14.20;7.30;;;;;;;20.92;66.75;101230.96;107332;1259;108599;-62
2023/08/23 01:31:45;;;;;;;19.30;7.60;;;;;;;20.91;66.69;101232.14;107351;1258;97898;-61
2023/08/23 01:34:27;;;;;;;19.20;7.40;;;;;;;20.90;66.82;101229.75;107361;1257;98382;-62
2023/08/23 01:36:57;;;;;;;15.80;7.70;;;;;;;20.86;67.23;101227.27;107448;1254;110863;-61
2023/08/23 01:39:26;;;;;;;17.40;6.80;;;;;;;20.81;67.54;101225.74;107242;1257;109026;-62
2023/08/23 01:41:56;;;;;;;17.70;8.20;;;;;;;20.75;67.68;101220.60;107234;1257;108102;-63
2023/08/23 01:44:25;;;;;;;18.90;7.70;;;;;;;20.71;67.69;101224.80;107370;1257;97898;-62
2023/08/23 01:46:53;;;;;;;13.50;7.20;;;;;;;20.68;67.94;101220.23;107370;1254;97911;-60
2023/08/23 01:49:22;;;;;;;25.20;7.60;;;;;;;20.67;68.30;101219.87;107367;1257;112786;-66
2023/08/23 01:51:50;;;;;;;20.70;7.90;;;;;;;20.64;68.16;101216.73;107373;1257;109792;-61
2023/08/23 01:54:18;;;;;;;23.60;7.40;;;;;;;20.62;68.38;101213.71;107134;1261;108259;-61
2023/08/23 01:56:46;;;;;;;17.60;7.30;;;;;;;20.60;68.44;101213.02;107292;1257;97837;-60
2023/08/23 01:59:15;;;;;;;15.90;6.60;;;;;;;20.59;68.72;101214.09;107250;1255;97974;-62
2023/08/23 02:01:43;;;;;;;12.80;7.20;;;;;;;20.58;68.58;101215.86;107290;1257;110347;-61
2023/08/23 02:04:13;;;;;;;15.90;7.20;;;;;;;20.56;68.85;101217.91;107259;1257;109785;-60
2023/08/23 02:06:43;;;;;;;16.10;7.80;;;;;;;20.54;68.79;101217.20;107249;1260;107239;-59
2023/08/23 02:09:12;;;;;;;16.50;7.70;;;;;;;20.54;68.58;101212.92;107303;1256;98395;-61
2023/08/23 02:11:40;;;;;;;16.60;7.20;;;;;;;20.52;68.73;101218.35;107293;1255;98369;-62
2023/08/23 02:14:08;;;;;;;16.90;8.10;;;;;;;20.48;68.68;101219.20;107124;1257;112199;-59
2023/08/23 02:16:36;;;;;;;24.20;8.60;;;;;;;20.46;68.69;101216.81;107302;1256;107875;-60
2023/08/23 02:19:04;;;;;;;16.70;7.50;;;;;;;20.44;68.75;101221.13;107242;1257;107648;-60
2023/08/23 02:21:35;;;;;;;16.30;7.50;;;;;;;20.44;68.67;101223.55;107352;1255;97842;-61
2023/08/23 02:24:04;;;;;;;15.20;7.10;;;;;;;20.44;69.02;101221.36;107314;1257;98394;-63
2023/08/23 02:26:35;;;;;;;15.30;6.80;;;;;;;20.43;69.06;101224.94;107269;1257;112133;-62
2023/08/23 02:29:03;;;;;;;13.20;7.00;;;;;;;20.41;69.09;101224.48;107270;1257;108323;-61
2023/08/23 02:31:31;;;;;;;17.70;7.70;;;;;;;20.37;69.15;101223.88;107285;1254;107821;-61
2023/08/23 02:34:00;;;;;;;25.60;7.80;;;;;;;20.33;69.08;101224.96;107290;1255;97829;-62
2023/08/23 02:36:29;;;;;;;11.80;6.80;;;;;;;20.30;68.97;101226.16;107232;1257;97848;-61
2023/08/23 02:38:58;;;;;;;18.40;7.40;;;;;;;20.30;69.06;101229.14;107212;1257;112743;-62
2023/08/23 02:41:26;;;;;;;14.40;7.50;;;;;;;20.31;69.19;101228.48;107297;1254;109636;-62
2023/08/23 02:43:55;;;;;;;17.30;7.50;;;;;;;20.28;69.24;101231.15;107191;1257;108049;-62
2023/08/23 02:46:24;;;;;;;13.60;6.90;;;;;;;20.26;69.34;101229.58;107282;1254;97832;-61
2023/08/23 02:48:53;;;;;;;15.70;7.40;;;;;;;20.26;69.23;101232.02;107270;1257;97543;-62
2023/08/23 02:51:22;;;;;;;18.50;8.60;;;;;;;20.25;69.20;101234.69;107330;1254;110828;-62
2023/08/23 02:53:51;;;;;;;24.70;7.90;;;;;;;20.26;69.16;101235.13;107389;1257;109708;-61
2023/08/23 02:56:19;;;;;;;15.00;6.90;;;;;;;20.25;69.09;101232.96;107250;1257;108131;-61
2023/08/23 02:58:48;;;;;;;11.80;7.10;;;;;;;20.24;69.03;101234.35;107349;1256;97842;-63
2023/08/23 03:01:17;;;;;;;19.70;7.50;;;;;;;20.26;69.26;101234.91;107369;1254;97707;-61
2023/08/23 03:03:45;;;;;;;14.50;7.80;;;;;;;20.25;69.37;101237.68;107265;1254;111717;-61
2023/08/23 03:06:14;;;;;;;19.00;7.50;;;;;;;20.22;69.45;101235.17;107397;1254;108871;-61
2023/08/23 03:08:42;;;;;;;13.60;7.60;;;;;;;20.20;69.62;101235.77;107385;1258;107409;-60
2023/08/23 03:11:10;;;;;;;13.40;7.00;;;;;;;20.21;69.44;101236.38;107327;1254;97845;-61
2023/08/23 03:13:39;;;;;;;16.10;7.60;;;;;;;20.24;69.40;101238.08;107391;1258;98071;-61
2023/08/23 03:16:07;;;;;;;11.80;8.50;;;;;;;20.27;69.40;101234.23;107308;1254;112360;-61
2023/08/23 03:18:36;;;;;;;21.40;7.70;;;;;;;20.27;69.35;101230.48;107225;1260;109499;-60
2023/08/23 03:21:05;;;;;;;15.50;7.90;;;;;;;20.28;69.94;101234.65;107334;1259;108326;-62
2023/08/23 03:23:39;;;;;;;20.40;9.10;;;;;;;20.26;70.35;101235.04;107339;1258;97877;-60
2023/08/23 03:26:07;;;;;;;19.90;8.00;;;;;;;20.22;70.37;101229.36;107315;1256;97881;-63
2023/08/23 03:28:36;;;;;;;29.10;8.50;;;;;;;20.21;69.98;101228.80;107149;1254;110516;-62
2023/08/23 03:31:08;;;;;;;19.20;9.70;;;;;;;20.22;69.78;101232.13;107408;1254;109104;-60
2023/08/23 03:33:36;;;;;;;12.50;7.50;;;;;;;20.23;70.00;101234.70;107380;1258;107668;-60
2023/08/23 03:36:06;;;;;;;18.80;7.10;;;;;;;20.24;69.67;101234.81;107287;1254;98057;-60
2023/08/23 03:38:34;;;;;;;23.90;9.50;;;;;;;20.22;69.74;101233.85;107400;1257;97841;-61
2023/08/23 03:41:02;;;;;;;11.60;7.40;;;;;;;20.19;70.07;101226.67;107228;1258;111752;-61
2023/08/23 03:43:31;;;;;;;14.90;7.50;;;;;;;20.13;70.07;101218.27;107398;1257;108799;-61
2023/08/23 03:45:59;;;;;;;15.30;7.10;;;;;;;20.10;70.06;101217.05;107287;1254;107771;-61
2023/08/23 03:48:28;;;;;;;16.20;8.30;;;;;;;20.08;70.17;101217.60;107363;1257;97723;-62
2023/08/23 03:50:59;;;;;;;23.20;7.70;;;;;;;20.08;70.08;101217.31;107363;1256;98359;-61
2023/08/23 03:53:27;;;;;;;13.10;7.00;;;;;;;20.10;70.02;101218.10;107256;1254;111974;-61
2023/08/23 03:55:56;;;;;;;19.40;8.30;;;;;;;20.13;70.20;101222.75;107421;1254;108849;-62
2023/08/23 03:58:25;;;;;;;14.30;7.50;;;;;;;20.14;70.05;101224.50;107407;1258;107254;-61
2023/08/23 04:00:53;;;;;;;17.90;7.90;;;;;;;20.14;70.07;101231.98;107099;1257;97874;-60
2023/08/23 04:03:23;;;;;;;10.20;6.80;;;;;;;20.16;70.24;101236.33;107398;1256;97705;-61
2023/08/23 04:05:51;;;;;;;16.20;7.40;;;;;;;20.18;70.46;101237.46;107263;1254;111338;-61
2023/08/23 04:08:20;;;;;;;12.50;7.00;;;;;;;20.18;70.47;101228.89;107281;1257;108291;-62
2023/08/23 04:10:50;;;;;;;16.40;7.40;;;;;;;20.18;70.96;101222.78;107378;1259;107191;-60
2023/08/23 04:13:19;;;;;;;16.90;7.20;;;;;;;20.16;70.58;101219.66;107309;1259;98627;-60
2023/08/23 04:15:48;;;;;;;17.60;8.40;;;;;;;20.17;70.64;101213.87;107347;1255;98374;-62
2023/08/23 04:18:16;;;;;;;21.40;9.10;;;;;;;20.20;70.42;101212.73;107350;1254;113343;-61
2023/08/23 04:20:45;;;;;;;14.20;8.10;;;;;;;20.25;70.47;101214.06;107242;1260;109675;-62
2023/08/23 04:23:13;;;;;;;18.40;8.40;;;;;;;20.32;70.33;101215.06;107264;1257;106584;-61
2023/08/23 04:25:41;;;;;;;17.80;9.10;;;;;;;20.39;70.25;101213.13;107241;1257;97868;-61
2023/08/23 04:28:10;;;;;;;22.20;8.30;;;;;;;20.43;70.14;101214.77;107404;1254;97834;-61
2023/08/23 04:30:42;;;;;;;17.80;7.50;;;;;;;20.47;70.03;101218.92;107174;1254;111510;-63
2023/08/23 04:33:11;;;;;;;13.00;7.40;;;;;;;20.52;69.80;101217.48;107310;1254;108696;-60
2023/08/23 04:35:40;;;;;;;17.90;7.60;;;;;;;20.57;69.80;101214.71;107320;1254;107750;-60
2023/08/23 04:38:13;;;;;;;13.50;7.70;;;;;;;20.61;69.82;101217.15;107298;1254;97931;-62
2023/08/23 04:40:42;;;;;;;21.30;7.90;;;;;;;20.63;69.55;101215.13;107404;1257;99550;-62
2023/08/23 04:43:10;;;;;;;19.70;8.50;;;;;;;20.68;69.66;101216.13;107356;1257;110761;-61
2023/08/23 04:45:41;;;;;;;17.00;7.80;;;;;;;20.72;69.58;101213.52;107396;1258;109671;-60
2023/08/23 04:48:09;;;;;;;23.40;8.40;;;;;;;20.77;69.58;101213.27;107352;1254;107874;-61
2023/08/23 04:50:38;;;;;;;31.60;9.50;;;;;;;20.83;69.47;101218.99;107335;1257;97689;-62
2023/08/23 04:53:06;;;;;;;15.40;7.50;;;;;;;20.87;69.39;101222.61;107388;1254;97691;-61
2023/08/23 04:55:34;;;;;;;20.40;9.70;;;;;;;20.94;69.29;101222.45;107380;1258;112144;-61
2023/08/23 04:58:02;;;;;;;18.10;8.50;;;;;;;21.03;69.20;101228.27;107300;1258;109659;-60
2023/08/23 05:00:30;;;;;;;23.60;9.00;;;;;;;21.13;69.17;101232.83;107340;1260;107178;-62
2023/08/23 05:02:58;;;;;;;18.80;8.10;;;;;;;21.26;68.96;101237.58;107331;1254;97751;-61
2023/08/23 05:05:27;;;;;;;22.00;8.20;;;;;;;21.41;68.87;101239.21;107396;1258;98395;-60
2023/08/23 05:07:55;;;;;;;22.90;8.50;;;;;;;21.56;68.64;101238.44;107378;1257;111961;-62
2023/08/23 05:10:25;;;;;;;27.10;9.60;;;;;;;21.72;68.45;101240.44;107367;1258;109284;-60
2023/08/23 05:12:56;;;;;;;25.40;8.50;;;;;;;21.88;68.04;101243.20;107381;1257;108294;-61
2023/08/23 05:15:24;;;;;;;33.30;9.90;;;;;;;22.05;67.78;101246.51;107337;1257;97926;-61
2023/08/23 05:17:53;;;;;;;22.60;9.20;;;;;;;22.18;67.35;101248.80;107221;1256;98377;-61
2023/08/23 05:20:21;;;;;;;20.70;8.20;;;;;;;22.31;66.84;101251.23;107286;1260;110806;-60
2023/08/23 05:22:49;;;;;;;27.00;8.50;;;;;;;22.44;66.49;101249.85;107402;1254;109754;-62
2023/08/23 05:25:18;;;;;;;31.20;9.40;;;;;;;22.55;66.02;101241.42;107230;1257;108704;-61
2023/08/23 05:27:46;;;;;;;28.20;9.80;;;;;;;22.68;65.82;101240.45;107395;1259;97835;-61
2023/08/23 05:30:15;;;;;;;33.70;9.50;;;;;;;22.80;65.43;101237.20;107397;1257;97947;-62
2023/08/23 05:32:43;;;;;;;33.40;8.80;;;;;;;22.90;64.99;101233.02;107403;1254;112214;-61
2023/08/23 05:35:12;;;;;;;35.10;10.00;;;;;;;23.00;64.40;101232.45;107378;1254;109974;-61
2023/08/23 05:37:41;;;;;;;27.20;9.40;;;;;;;23.08;63.74;101234.06;107256;1260;108181;-62
2023/08/23 05:40:09;;;;;;;37.30;8.80;;;;;;;23.15;63.15;101229.98;107270;1256;97819;-61
2023/08/23 05:42:38;;;;;;;27.90;9.40;;;;;;;23.22;62.81;101229.69;107389;1257;99963;-61
2023/08/23 05:45:08;;;;;;;26.60;9.30;;;;;;;23.30;62.54;101222.67;107226;1260;111222;-60
2023/08/23 05:47:36;;;;;;;21.90;9.00;;;;;;;23.38;62.06;101217.52;107319;1260;109215;-61
2023/08/23 05:50:05;;;;;;;26.00;9.60;;;;;;;23.45;61.74;101211.86;107260;1254;108328;-61
2023/08/23 05:52:33;;;;;;;20.10;9.70;;;;;;;23.49;60.08;101207.44;107282;1257;97960;-62
2023/08/23 05:55:01;;;;;;;23.40;9.40;;;;;;;23.50;58.84;101204.98;107392;1257;97845;-61
2023/08/23 05:57:30;;;;;;;25.70;9.90;;;;;;;23.49;57.96;101203.84;107404;1257;111944;-63
2023/08/23 05:59:58;;;;;;;21.50;10.50;;;;;;;23.52;58.41;101208.15;107352;1258;110695;-61
2023/08/23 06:02:26;;;;;;;30.40;10.50;;;;;;;23.60;58.26;101210.98;107369;1259;107375;-63
2023/08/23 06:04:54;;;;;;;29.70;9.70;;;;;;;23.65;57.66;101210.59;107373;1257;97893;-62
2023/08/23 06:07:22;;;;;;;50.30;10.20;;;;;;;23.72;57.15;101210.50;107361;1259;97748;-61
2023/08/23 06:09:51;;;;;;;36.00;10.90;;;;;;;23.86;57.26;101215.21;107381;1257;110855;-61
2023/08/23 06:12:19;;;;;;;29.60;9.80;;;;;;;24.02;56.42;101220.66;107342;1258;109767;-60
2023/08/23 06:14:47;;;;;;;32.30;9.80;;;;;;;24.19;56.45;101220.02;107354;1257;107860;-61
2023/08/23 06:17:18;;;;;;;29.20;9.40;;;;;;;24.36;56.24;101218.48;107361;1258;97834;-61
2023/08/23 06:19:46;;;;;;;24.00;10.80;;;;;;;24.48;55.33;101223.98;107380;1260;97802;-60
2023/08/23 06:22:15;;;;;;;22.20;9.90;;;;;;;24.55;54.94;101222.85;107385;1256;110881;-62
2023/08/23 06:24:43;;;;;;;28.60;10.20;;;;;;;24.67;55.32;101226.41;107291;1258;109187;-60
2023/08/23 06:27:11;;;;;;;32.70;10.50;;;;;;;24.81;54.98;101229.44;107242;1258;107493;-62
2023/08/23 06:29:40;;;;;;;34.50;10.40;;;;;;;24.90;53.94;101232.11;107325;1259;97853;-61
2023/08/23 06:32:08;;;;;;;32.10;10.90;;;;;;;24.91;53.71;101236.11;107369;1260;97854;-62
2023/08/23 06:34:38;;;;;;;22.20;11.10;;;;;;;24.94;53.14;101237.73;107279;1258;112355;-62
2023/08/23 06:37:07;;;;;;;25.10;9.90;;;;;;;24.97;53.13;101249.42;107332;1257;109826;-61
2023/08/23 06:39:36;;;;;;;25.60;10.20;;;;;;;25.05;53.11;101252.71;107365;1258;106810;-61
2023/08/23 06:42:05;;;;;;;25.30;9.20;;;;;;;25.11;52.83;101244.41;107321;1258;97849;-61
2023/08/23 06:44:34;;;;;;;24.30;10.00;;;;;;;25.19;52.45;101245.80;107294;1258;97732;-63
2023/08/23 06:47:02;;;;;;;17.60;8.40;;;;;;;25.33;52.60;101245.15;107338;1260;111321;-62
2023/08/23 06:49:30;;;;;;;18.40;9.00;;;;;;;25.47;52.24;101240.48;107362;1257;109383;-61
2023/08/23 06:51:58;;;;;;;29.00;9.90;;;;;;;25.64;51.76;101249.13;107375;1254;108571;-61
2023/08/23 06:54:27;;;;;;;23.10;9.30;;;;;;;25.83;51.05;101248.41;107427;1255;97915;-61
2023/08/23 06:56:55;;;;;;;24.00;8.90;;;;;;;26.08;51.13;101250.13;107406;1257;98366;-60
2023/08/23 06:59:23;;;;;;;29.00;9.10;;;;;;;26.31;50.80;101256.20;107381;1257;111793;-60
2023/08/23 07:01:51;;;;;;;36.00;9.70;;;;;;;26.53;50.51;101259.71;107371;1255;109223;-61
2023/08/23 07:04:19;;;;;;;20.70;9.10;;;;;;;26.71;49.81;101260.23;107333;1258;108079;-63
2023/08/23 07:06:48;;;;;;;32.90;8.90;;;;;;;26.83;48.97;101260.21;107406;1257;98521;-62
2023/08/23 07:09:16;;;;;;;20.50;8.50;;;;;;;26.94;48.67;101260.66;107369;1259;98372;-61
2023/08/23 07:11:44;;;;;;;45.00;8.50;;;;;;;27.00;47.86;101262.33;107379;1259;112325;-63
2023/08/23 07:14:13;;;;;;;24.80;8.20;;;;;;;26.99;46.91;101277.31;107408;1259;108793;-61
2023/08/23 07:16:41;;;;;;;25.60;8.60;;;;;;;27.00;47.17;101277.99;107286;1260;107688;-62
2023/08/23 07:19:10;;;;;;;31.10;8.30;;;;;;;27.08;47.77;101279.33;107430;1255;97822;-61
2023/08/23 07:21:38;;;;;;;23.80;8.80;;;;;;;27.19;47.49;101283.38;107280;1254;97727;-61
2023/08/23 07:24:06;;;;;;;22.90;9.10;;;;;;;27.27;47.28;101280.34;107377;1254;111815;-62
2023/08/23 07:26:34;;;;;;;22.20;8.00;;;;;;;27.39;47.44;101279.96;107367;1258;109163;-61
2023/08/23 07:29:03;;;;;;;21.80;7.90;;;;;;;27.41;46.55;101282.91;107357;1258;107764;-61
2023/08/23 07:31:32;;;;;;;23.40;7.50;;;;;;;27.42;46.81;101289.41;107353;1257;97927;-61
2023/08/23 07:34:00;;;;;;;16.80;7.20;;;;;;;27.43;46.80;101295.05;107342;1254;97853;-61
2023/08/23 07:36:28;;;;;;;26.10;7.70;;;;;;;27.37;46.99;101300.31;107363;1257;111845;-62
2023/08/23 07:38:58;;;;;;;19.60;7.50;;;;;;;27.25;46.55;101305.71;107383;1254;109300;-62
2023/08/23 07:41:27;;;;;;;17.40;7.80;;;;;;;27.08;46.82;101305.11;107353;1257;108440;-62
2023/08/23 07:43:55;;;;;;;21.00;7.90;;;;;;;27.03;47.47;101310.01;107405;1255;97759;-61
2023/08/23 07:46:24;;;;;;;23.10;7.40;;;;;;;27.13;47.92;101312.05;107414;1255;97742;-61
2023/08/23 07:48:52;;;;;;;22.10;7.40;;;;;;;27.30;47.65;101316.90;107398;1255;111249;-60
2023/08/23 07:51:21;;;;;;;40.90;9.90;;;;;;;27.41;47.39;101323.85;107398;1258;109192;-62
2023/08/23 07:53:49;;;;;;;30.30;9.20;;;;;;;27.37;47.42;101331.35;107265;1257;107462;-62
2023/08/23 07:56:18;;;;;;;34.50;9.10;;;;;;;27.22;47.32;101329.30;107209;1257;97866;-63
2023/08/23 07:58:46;;;;;;;31.50;10.50;;;;;;;27.00;47.60;101325.05;107337;1257;98408;-62
2023/08/23 08:01:14;;;;;;;27.20;9.50;;;;;;;26.85;48.13;101320.20;107402;1257;111100;-62
2023/08/23 08:03:42;;;;;;;23.00;9.20;;;;;;;26.69;48.53;101321.50;107385;1260;109026;-60
2023/08/23 08:06:11;;;;;;;24.00;10.50;;;;;;;26.65;49.07;101329.15;107278;1257;107537;-60
2023/08/23 08:08:42;;;;;;;26.70;11.40;;;;;;;26.63;49.36;101328.38;107301;1256;97819;-61
2023/08/23 08:11:12;;;;;;;30.00;11.10;;;;;;;26.62;49.88;101325.70;107329;1256;97848;-61
2023/08/23 08:13:40;;;;;;;36.90;11.20;;;;;;;26.62;50.01;101332.75;107314;1258;112696;-61
2023/08/23 08:16:14;;;;;;;26.90;9.80;;;;;;;26.61;50.00;101336.36;107175;1257;109311;-60
2023/08/23 08:18:45;;;;;;;22.10;8.80;;;;;;;26.62;49.78;101329.15;107374;1257;108193;-61
2023/08/23 08:21:13;;;;;;;26.50;8.70;;;;;;;26.60;49.21;101318.46;107301;1258;97710;-61
2023/08/23 08:23:41;;;;;;;14.70;7.00;;;;;;;26.62;48.63;101316.70;107330;1257;97711;-61
2023/08/23 08:26:11;;;;;;;15.50;6.60;;;;;;;26.72;48.53;101309.13;107312;1257;111311;-62
2023/08/23 08:28:43;;;;;;;20.70;6.50;;;;;;;26.87;47.97;101298.41;107322;1257;107959;-62
2023/08/23 08:31:13;;;;;;;14.80;6.00;;;;;;;27.00;47.35;101295.95;107374;1257;108853;-62
2023/08/23 08:33:42;;;;;;;17.20;6.20;;;;;;;27.08;46.93;101291.03;107328;1257;97844;-62
2023/08/23 08:36:12;;;;;;;13.90;5.70;;;;;;;27.27;46.91;101285.02;107357;1261;98630;-61
2023/08/23 08:38:41;;;;;;;14.30;5.90;;;;;;;27.50;46.84;101277.23;107379;1260;111869;-61
2023/08/23 08:41:10;;;;;;;14.10;6.70;;;;;;;27.64;46.73;101278.53;107336;1257;110211;-61
2023/08/23 08:43:39;;;;;;;13.40;6.60;;;;;;;27.73;46.63;101271.23;107360;1257;107756;-61
2023/08/23 08:46:07;;;;;;;16.50;5.60;;;;;;;27.89;46.30;101270.94;107380;1256;97906;-61
2023/08/23 08:48:36;;;;;;;18.10;8.60;;;;;;;27.93;45.38;101266.17;107298;1257;98462;-61
2023/08/23 08:51:08;;;;;;;18.80;9.70;;;;;;;27.94;45.83;101260.66;107331;1257;111687;-60
2023/08/23 08:53:37;;;;;;;14.80;6.20;;;;;;;28.08;45.86;101255.64;107455;1254;108442;-60
2023/08/23 08:56:07;;;;;;;14.20;7.00;;;;;;;28.14;45.24;101248.02;107431;1257;107715;-61
2023/08/23 08:58:36;;;;;;;16.80;5.90;;;;;;;28.24;44.71;101241.61;107453;1254;97819;-60
2023/08/23 09:01:05;;;;;;;12.30;5.70;;;;;;;28.32;44.49;101239.96;107378;1254;97713;-60
2023/08/23 09:03:35;;;;;;;13.80;5.30;;;;;;;28.40;44.69;101229.79;107421;1254;111977;-60
2023/08/23 09:06:03;;;;;;;12.50;4.70;;;;;;;28.64;44.65;101217.92;107454;1257;110149;-60
2023/08/23 09:08:33;;;;;;;15.50;5.60;;;;;;;28.94;43.80;101204.88;107376;1254;108350;-61
2023/08/23 09:11:01;;;;;;;17.90;5.90;;;;;;;29.21;43.03;101197.61;107393;1254;97820;-60
2023/08/23 09:13:30;;;;;;;14.90;5.70;;;;;;;29.54;42.55;101190.11;107367;1257;100205;-65
2023/08/23 09:15:58;;;;;;;16.10;5.70;;;;;;;29.89;42.29;101182.38;107305;1254;112380;-62
2023/08/23 09:18:27;;;;;;;14.50;5.40;;;;;;;30.30;41.59;101176.91;107379;1254;110168;-60
2023/08/23 09:20:56;;;;;;;11.70;5.40;;;;;;;30.64;39.38;101168.50;107298;1254;108680;-62
2023/08/23 09:23:24;;;;;;;11.90;5.10;;;;;;;30.87;38.82;101165.00;107317;1254;97911;-61
2023/08/23 09:25:52;;;;;;;14.30;5.80;;;;;;;30.88;37.92;101163.62;107332;1257;98434;-61
2023/08/23 09:28:22;;;;;;;18.90;5.90;;;;;;;30.91;38.23;101159.54;107342;1254;112246;-61
2023/08/23 09:30:50;;;;;;;19.20;5.40;;;;;;;31.04;37.59;101157.32;107356;1257;109802;-61
2023/08/23 09:33:18;;;;;;;14.20;4.80;;;;;;;31.12;37.81;101150.89;107332;1254;109357;-61
2023/08/23 09:35:48;;;;;;;15.80;4.70;;;;;;;31.41;37.37;101146.95;107388;1254;97928;-61
2023/08/23 09:38:21;;;;;;;10.00;4.40;;;;;;;32.25;35.30;101137.59;107421;1254;97777;-63
2023/08/23 09:40:50;;;;;;;11.40;4.30;;;;;;;33.09;34.35;101129.33;107382;1254;110258;-61
2023/08/23 09:43:19;;;;;;;13.00;4.30;;;;;;;33.62;34.13;101120.73;107391;1254;110042;-61
2023/08/23 09:45:48;;;;;;;16.30;4.60;;;;;;;33.74;33.61;101119.36;107285;1254;107933;-61
2023/08/23 09:48:21;;;;;;;17.80;4.40;;;;;;;33.69;32.81;101117.20;107346;1254;97819;-63
2023/08/23 09:50:51;;;;;;;13.60;3.90;;;;;;;33.53;32.54;101116.52;107414;1254;97854;-63
2023/08/23 09:53:26;;;;;;;9.80;4.60;;;;;;;33.46;33.42;101119.27;107342;1254;111920;-63
2023/08/23 09:55:55;;;;;;;13.10;4.40;;;;;;;33.59;33.31;101112.48;106788;1254;809383;-61
2023/08/23 09:58:24;;;;;;;13.30;4.30;;;;;;;33.87;33.52;101104.63;107352;1254;107209;-62
2023/08/23 10:00:53;;;;;;;9.90;3.90;;;;;;;34.23;33.69;101105.98;107382;1254;97857;-62
2023/08/23 10:03:23;;;;;;;15.50;4.00;;;;;;;34.41;33.02;101108.19;107316;1257;98398;-62
2023/08/23 10:05:53;;;;;;;13.00;3.90;;;;;;;34.43;32.73;101112.87;107407;1254;110813;-62
2023/08/23 10:08:23;;;;;;;8.60;4.10;;;;;;;34.27;32.45;101112.71;107408;1255;109506;-62
2023/08/23 10:10:52;;;;;;;7.60;3.90;;;;;;;34.17;32.16;101111.77;107346;1254;108706;-62
2023/08/23 10:13:22;;;;;;;12.50;4.40;;;;;;;34.09;32.57;101120.73;107347;1254;97708;-63
2023/08/23 10:15:54;;;;;;;13.30;4.20;;;;;;;34.04;32.34;101132.27;107312;1254;97819;-60
2023/08/23 10:18:23;;;;;;;8.80;3.60;;;;;;;33.97;32.19;101135.70;107349;1257;111880;-62
2023/08/23 10:20:52;;;;;;;9.90;3.90;;;;;;;33.94;32.11;101145.98;107426;1254;109369;-63
2023/08/23 10:23:21;;;;;;;13.40;4.90;;;;;;;33.96;32.67;101147.81;107335;1254;108186;-62
2023/08/23 10:25:49;;;;;;;19.50;4.10;;;;;;;34.16;32.41;101152.08;107374;1257;97844;-62
2023/08/23 10:28:18;;;;;;;13.40;4.00;;;;;;;34.37;31.88;101152.31;107393;1257;98386;-61
2023/08/23 10:30:50;;;;;;;18.30;4.10;;;;;;;34.54;31.90;101151.17;107443;1257;111191;-61
2023/08/23 10:33:19;;;;;;;16.80;4.70;;;;;;;34.85;30.96;101149.42;107387;1257;108903;-62
2023/08/23 10:35:48;;;;;;;16.10;3.00;;;;;;;34.98;31.37;101147.40;107377;1254;107851;-62
2023/08/23 10:38:16;;;;;;;6.10;3.20;;;;;;;35.24;30.83;101151.08;107381;1254;97859;-62
2023/08/23 10:40:47;;;;;;;5.60;2.80;;;;;;;35.73;30.17;101147.23;107360;1257;98023;-63
2023/08/23 10:43:18;;;;;;;5.30;2.90;;;;;;;36.51;29.89;101142.20;107373;1257;112126;-63
2023/08/23 10:46:06;;;;;;;5.80;2.70;;;;;;;37.38;29.56;101141.17;107338;1254;109672;-60
2023/08/23 10:48:36;;;;;;;8.00;3.10;;;;;;;38.37;27.06;101140.05;107428;1254;108289;-62
2023/08/23 10:51:06;;;;;;;14.50;3.20;;;;;;;38.89;27.50;101143.20;107382;1254;97825;-63
2023/08/23 10:53:35;;;;;;;9.60;2.90;;;;;;;39.51;25.65;101144.65;107469;1254;97729;-62
2023/08/23 10:56:03;;;;;;;11.80;3.20;;;;;;;39.90;24.57;101141.31;107366;1257;111027;-61
2023/08/23 10:58:33;;;;;;;7.90;3.00;;;;;;;39.51;25.52;101135.38;107320;1254;108639;-62
2023/08/23 11:01:02;;;;;;;12.90;3.10;;;;;;;39.02;25.11;101131.52;107355;1257;108007;-62
2023/08/23 11:03:33;;;;;;;8.60;3.10;;;;;;;38.58;25.67;101125.08;107380;1257;97739;-63
2023/08/23 11:06:02;;;;;;;7.40;3.00;;;;;;;38.56;25.36;101127.10;107383;1257;97800;-61
2023/08/23 11:08:31;;;;;;;10.80;3.80;;;;;;;38.24;24.86;101126.19;107421;1254;111750;-61
2023/08/23 11:10:59;;;;;;;10.20;3.10;;;;;;;38.01;24.90;101121.59;107374;1257;108791;-58
2023/08/23 11:13:27;;;;;;;6.40;3.00;;;;;;;38.13;25.41;101119.80;107368;1257;107311;-62